sensor_id;sensor_type;location;lat;lon;timestamp;pressure;altitude;pressure_sealevel;temperature
62611;BMP280;48683;48.084;17.272;2023-04-28T00:00:52;100832.31;;;6.18
62611;BMP280;48683;48.084;17.272;2023-04-28T00:03:18;100834.53;;;6.16
62611;BMP280;48683;48.084;17.272;2023-04-28T00:05:43;100846.03;;;6.32
62611;BMP280;48683;48.084;17.272;2023-04-28T00:08:09;100845.94;;;6.29
62611;BMP280;48683;48.084;17.272;2023-04-28T00:10:34;100848.94;;;6.27
62611;BMP280;48683;48.084;17.272;2023-04-28T00:13:00;100846.84;;;6.20
62611;BMP280;48683;48.084;17.272;2023-04-28T00:15:26;100849.63;;;6.24
62611;BMP280;48683;48.084;17.272;2023-04-28T00:17:51;100843.88;;;6.22
62611;BMP280;48683;48.084;17.272;2023-04-28T00:20:17;100850.06;;;6.26
62611;BMP280;48683;48.084;17.272;2023-04-28T00:22:42;100856.09;;;6.39
62611;BMP280;48683;48.084;17.272;2023-04-28T00:25:08;100856.19;;;6.42
62611;BMP280;48683;48.084;17.272;2023-04-28T00:27:34;100857.59;;;6.52
62611;BMP280;48683;48.084;17.272;2023-04-28T00:29:59;100860.88;;;6.45
62611;BMP280;48683;48.084;17.272;2023-04-28T00:32:25;100852.50;;;6.47
62611;BMP280;48683;48.084;17.272;2023-04-28T00:34:50;100852.50;;;6.47
62611;BMP280;48683;48.084;17.272;2023-04-28T00:37:16;100854.06;;;6.48
62611;BMP280;48683;48.084;17.272;2023-04-28T00:39:41;100862.06;;;6.48
62611;BMP280;48683;48.084;17.272;2023-04-28T00:42:09;100854.06;;;6.48
62611;BMP280;48683;48.084;17.272;2023-04-28T00:44:35;100852.50;;;6.47
62611;BMP280;48683;48.084;17.272;2023-04-28T00:47:00;100854.16;;;6.51
62611;BMP280;48683;48.084;17.272;2023-04-28T00:49:25;100850.72;;;6.51
62611;BMP280;48683;48.084;17.272;2023-04-28T00:51:51;100843.47;;;6.36
62611;BMP280;48683;48.084;17.272;2023-04-28T00:54:16;100841.28;;;6.26
62611;BMP280;48683;48.084;17.272;2023-04-28T00:56:42;100845.06;;;6.25
62611;BMP280;48683;48.084;17.272;2023-04-28T00:59:07;100846.09;;;6.20
62611;BMP280;48683;48.084;17.272;2023-04-28T01:01:34;100856.84;;;6.24
62611;BMP280;48683;48.084;17.272;2023-04-28T01:03:59;100857.81;;;6.31
62611;BMP280;48683;48.084;17.272;2023-04-28T01:06:25;100865.47;;;6.33
62611;BMP280;48683;48.084;17.272;2023-04-28T01:08:51;100864.38;;;6.34
62611;BMP280;48683;48.084;17.272;2023-04-28T01:11:17;100871.00;;;6.40
62611;BMP280;48683;48.084;17.272;2023-04-28T01:13:43;100872.47;;;6.37
62611;BMP280;48683;48.084;17.272;2023-04-28T01:16:08;100871.69;;;6.37
62611;BMP280;48683;48.084;17.272;2023-04-28T01:18:33;100860.75;;;6.26
62611;BMP280;48683;48.084;17.272;2023-04-28T01:20:59;100866.72;;;6.23
62611;BMP280;48683;48.084;17.272;2023-04-28T01:23:25;100873.28;;;6.26
62611;BMP280;48683;48.084;17.272;2023-04-28T01:25:50;100865.09;;;6.18
62611;BMP280;48683;48.084;17.272;2023-04-28T01:28:16;100867.88;;;6.22
62611;BMP280;48683;48.084;17.272;2023-04-28T01:30:41;100867.59;;;6.27
62611;BMP280;48683;48.084;17.272;2023-04-28T01:33:06;100864.75;;;6.20
62611;BMP280;48683;48.084;17.272;2023-04-28T01:35:32;100862.31;;;6.15
62611;BMP280;48683;48.084;17.272;2023-04-28T01:37:57;100877.06;;;6.25
62611;BMP280;48683;48.084;17.272;2023-04-28T01:40:23;100859.31;;;6.16
62611;BMP280;48683;48.084;17.272;2023-04-28T01:42:48;100867.88;;;6.22
62611;BMP280;48683;48.084;17.272;2023-04-28T01:45:14;100867.25;;;6.01
62611;BMP280;48683;48.084;17.272;2023-04-28T01:47:39;100860.25;;;5.96
62611;BMP280;48683;48.084;17.272;2023-04-28T01:50:05;100872.59;;;6.01
62611;BMP280;48683;48.084;17.272;2023-04-28T01:52:30;100875.06;;;5.94
62611;BMP280;48683;48.084;17.272;2023-04-28T01:54:56;100872.63;;;5.89
62611;BMP280;48683;48.084;17.272;2023-04-28T01:57:21;100873.28;;;5.98
62611;BMP280;48683;48.084;17.272;2023-04-28T01:59:47;100876.63;;;5.95
62611;BMP280;48683;48.084;17.272;2023-04-28T02:02:12;100873.06;;;5.91
62611;BMP280;48683;48.084;17.272;2023-04-28T02:04:38;100874.06;;;5.74
62611;BMP280;48683;48.084;17.272;2023-04-28T02:07:04;100873.38;;;5.77
62611;BMP280;48683;48.084;17.272;2023-04-28T02:09:30;100869.84;;;5.73
62611;BMP280;48683;48.084;17.272;2023-04-28T02:11:55;100874.50;;;5.76
62611;BMP280;48683;48.084;17.272;2023-04-28T02:14:20;100874.06;;;5.74
62611;BMP280;48683;48.084;17.272;2023-04-28T02:16:46;100868.44;;;5.63
62611;BMP280;48683;48.084;17.272;2023-04-28T02:19:11;100867.09;;;5.57
62611;BMP280;48683;48.084;17.272;2023-04-28T02:21:37;100873.75;;;5.51
62611;BMP280;48683;48.084;17.272;2023-04-28T02:24:02;100863.34;;;5.46
62611;BMP280;48683;48.084;17.272;2023-04-28T02:26:28;100872.00;;;5.55
62611;BMP280;48683;48.084;17.272;2023-04-28T02:28:53;100867.88;;;5.46
62611;BMP280;48683;48.084;17.272;2023-04-28T02:31:19;100867.78;;;5.42
62611;BMP280;48683;48.084;17.272;2023-04-28T02:33:45;100874.44;;;5.36
62611;BMP280;48683;48.084;17.272;2023-04-28T02:36:10;100880.31;;;5.30
62611;BMP280;48683;48.084;17.272;2023-04-28T02:38:36;100878.88;;;5.20
62611;BMP280;48683;48.084;17.272;2023-04-28T02:41:04;100884.88;;;5.17
62611;BMP280;48683;48.084;17.272;2023-04-28T02:43:30;100885.31;;;5.19
62611;BMP280;48683;48.084;17.272;2023-04-28T02:45:56;100885.41;;;5.22
62611;BMP280;48683;48.084;17.272;2023-04-28T02:48:22;100881.66;;;5.36
62611;BMP280;48683;48.084;17.272;2023-04-28T02:50:47;100880.31;;;5.30
62611;BMP280;48683;48.084;17.272;2023-04-28T02:53:13;100895.53;;;5.29
62611;BMP280;48683;48.084;17.272;2023-04-28T02:55:38;100879.75;;;5.24
62611;BMP280;48683;48.084;17.272;2023-04-28T02:58:04;100880.75;;;5.32
62611;BMP280;48683;48.084;17.272;2023-04-28T03:00:29;100888.53;;;5.37
62611;BMP280;48683;48.084;17.272;2023-04-28T03:02:55;100885.97;;;5.28
62611;BMP280;48683;48.084;17.272;2023-04-28T03:05:20;100885.97;;;5.28
62611;BMP280;48683;48.084;17.272;2023-04-28T03:07:46;100879.41;;;5.25
62611;BMP280;48683;48.084;17.272;2023-04-28T03:10:11;100888.53;;;5.24
62611;BMP280;48683;48.084;17.272;2023-04-28T03:12:37;100891.31;;;5.28
62611;BMP280;48683;48.084;17.272;2023-04-28T03:15:02;100891.31;;;5.28
62611;BMP280;48683;48.084;17.272;2023-04-28T03:17:28;100887.28;;;5.22
62611;BMP280;48683;48.084;17.272;2023-04-28T03:19:53;100883.09;;;5.21
62611;BMP280;48683;48.084;17.272;2023-04-28T03:22:19;100883.41;;;5.19
62611;BMP280;48683;48.084;17.272;2023-04-28T03:24:44;100889.72;;;5.15
62611;BMP280;48683;48.084;17.272;2023-04-28T03:27:10;100876.88;;;5.17
62611;BMP280;48683;48.084;17.272;2023-04-28T03:29:35;100879.41;;;5.25
62611;BMP280;48683;48.084;17.272;2023-04-28T03:32:01;100870.69;;;5.25
62611;BMP280;48683;48.084;17.272;2023-04-28T03:34:26;100867.75;;;5.06
62611;BMP280;48683;48.084;17.272;2023-04-28T03:36:51;100868.91;;;5.17
62611;BMP280;48683;48.084;17.272;2023-04-28T03:39:17;100865.22;;;5.09
62611;BMP280;48683;48.084;17.272;2023-04-28T03:41:42;100867.22;;;5.12
62611;BMP280;48683;48.084;17.272;2023-04-28T03:44:08;100869.78;;;5.21
62611;BMP280;48683;48.084;17.272;2023-04-28T03:46:33;100879.19;;;5.18
62611;BMP280;48683;48.084;17.272;2023-04-28T03:48:59;100868.09;;;5.04
62611;BMP280;48683;48.084;17.272;2023-04-28T03:51:27;100870.31;;;5.02
62611;BMP280;48683;48.084;17.272;2023-04-28T03:53:53;100866.63;;;4.95
62611;BMP280;48683;48.084;17.272;2023-04-28T03:56:18;100869.06;;;4.88
62611;BMP280;48683;48.084;17.272;2023-04-28T03:58:44;100867.28;;;4.79
62611;BMP280;48683;48.084;17.272;2023-04-28T04:01:09;100869.63;;;4.81
62611;BMP280;48683;48.084;17.272;2023-04-28T04:03:34;100870.44;;;4.94
62611;BMP280;48683;48.084;17.272;2023-04-28T04:06:00;100877.06;;;5.00
62611;BMP280;48683;48.084;17.272;2023-04-28T04:08:26;100878.28;;;5.02
62611;BMP280;48683;48.084;17.272;2023-04-28T04:10:52;100879.53;;;5.05
62611;BMP280;48683;48.084;17.272;2023-04-28T04:13:19;100885.50;;;5.14
62611;BMP280;48683;48.084;17.272;2023-04-28T04:15:44;100882.22;;;5.17
62611;BMP280;48683;48.084;17.272;2023-04-28T04:18:10;100883.31;;;5.28
62611;BMP280;48683;48.084;17.272;2023-04-28T04:20:35;100880.19;;;5.26
62611;BMP280;48683;48.084;17.272;2023-04-28T04:23:01;100886.09;;;5.32
62611;BMP280;48683;48.084;17.272;2023-04-28T04:25:27;100894.75;;;5.29
62611;BMP280;48683;48.084;17.272;2023-04-28T04:27:53;100883.31;;;5.28
62611;BMP280;48683;48.084;17.272;2023-04-28T04:30:18;100883.06;;;5.33
62611;BMP280;48683;48.084;17.272;2023-04-28T04:32:44;100894.19;;;5.35
62611;BMP280;48683;48.084;17.272;2023-04-28T04:35:09;100900.50;;;5.43
62611;BMP280;48683;48.084;17.272;2023-04-28T04:37:34;100901.59;;;5.54
62611;BMP280;48683;48.084;17.272;2023-04-28T04:40:00;100908.03;;;5.53
62611;BMP280;48683;48.084;17.272;2023-04-28T04:42:25;100900.72;;;5.50
62611;BMP280;48683;48.084;17.272;2023-04-28T04:44:50;100905.84;;;5.55
62611;BMP280;48683;48.084;17.272;2023-04-28T04:47:16;100903.06;;;5.51
62611;BMP280;48683;48.084;17.272;2023-04-28T04:49:41;100905.84;;;5.55
62611;BMP280;48683;48.084;17.272;2023-04-28T04:52:07;100900.63;;;5.58
62611;BMP280;48683;48.084;17.272;2023-04-28T04:54:32;100911.69;;;5.72
62611;BMP280;48683;48.084;17.272;2023-04-28T04:56:57;100900.16;;;5.68
62611;BMP280;48683;48.084;17.272;2023-04-28T04:59:23;100893.03;;;5.72
62611;BMP280;48683;48.084;17.272;2023-04-28T05:01:48;100886.50;;;5.58
62611;BMP280;48683;48.084;17.272;2023-04-28T05:04:13;100889.94;;;5.70
62611;BMP280;48683;48.084;17.272;2023-04-28T05:06:39;100886.19;;;5.71
62611;BMP280;48683;48.084;17.272;2023-04-28T05:09:04;100896.94;;;5.75
62611;BMP280;48683;48.084;17.272;2023-04-28T05:11:30;100887.19;;;5.67
62611;BMP280;48683;48.084;17.272;2023-04-28T05:13:55;100886.72;;;5.77
62611;BMP280;48683;48.084;17.272;2023-04-28T05:16:20;100886.28;;;5.75
62611;BMP280;48683;48.084;17.272;2023-04-28T05:18:46;100878.81;;;5.81
62611;BMP280;48683;48.084;17.272;2023-04-28T05:21:11;100889.84;;;5.91
62611;BMP280;48683;48.084;17.272;2023-04-28T05:23:37;100885.13;;;6.00
62611;BMP280;48683;48.084;17.272;2023-04-28T05:26:03;100883.03;;;6.06
62611;BMP280;48683;48.084;17.272;2023-04-28T05:28:29;100881.91;;;6.07
62611;BMP280;48683;48.084;17.272;2023-04-28T05:30:54;100888.66;;;6.16
62611;BMP280;48683;48.084;17.272;2023-04-28T05:33:20;100890.31;;;6.21
62611;BMP280;48683;48.084;17.272;2023-04-28T05:35:46;100891.84;;;6.22
62611;BMP280;48683;48.084;17.272;2023-04-28T05:38:12;100896.28;;;6.30
62611;BMP280;48683;48.084;17.272;2023-04-28T05:40:37;100893.94;;;6.29
62611;BMP280;48683;48.084;17.272;2023-04-28T05:43:02;100894.59;;;6.38
62611;BMP280;48683;48.084;17.272;2023-04-28T05:45:28;100891.47;;;6.36
62611;BMP280;48683;48.084;17.272;2023-04-28T05:47:54;100892.00;;;6.41
62611;BMP280;48683;48.084;17.272;2023-04-28T05:50:19;100904.94;;;6.55
62611;BMP280;48683;48.084;17.272;2023-04-28T10:11:39;100627.06;;;15.40
62611;BMP280;48683;48.084;17.272;2023-04-28T10:14:04;100631.44;;;15.60
62611;BMP280;48683;48.084;17.272;2023-04-28T10:16:30;100613.31;;;15.57
62611;BMP280;48683;48.084;17.272;2023-04-28T10:18:57;100619.38;;;15.65
62611;BMP280;48683;48.084;17.272;2023-04-28T10:21:23;100607.09;;;15.60
62611;BMP280;48683;48.084;17.272;2023-04-28T10:24:02;100609.56;;;15.51
62611;BMP280;48683;48.084;17.272;2023-04-28T10:26:53;100607.78;;;15.64
62611;BMP280;48683;48.084;17.272;2023-04-28T10:29:25;100611.47;;;15.78
62611;BMP280;48683;48.084;17.272;2023-04-28T10:32:22;100609.69;;;16.18
62611;BMP280;48683;48.084;17.272;2023-04-28T10:34:50;100610.06;;;16.39
62611;BMP280;48683;48.084;17.272;2023-04-28T10:37:17;100598.28;;;16.49
62611;BMP280;48683;48.084;17.272;2023-04-28T10:42:54;100586.53;;;16.56
62611;BMP280;48683;48.084;17.272;2023-04-28T10:45:59;100581.59;;;16.51
62611;BMP280;48683;48.084;17.272;2023-04-28T10:58:34;100562.84;;;16.80
62611;BMP280;48683;48.084;17.272;2023-04-28T11:04:05;100551.03;;;16.90
62611;BMP280;48683;48.084;17.272;2023-04-28T11:06:43;100552.25;;;17.05
62611;BMP280;48683;48.084;17.272;2023-04-28T11:17:27;100539.84;;;17.40
62611;BMP280;48683;48.084;17.272;2023-04-28T11:19:45;100526.03;;;17.34
62611;BMP280;48683;48.084;17.272;2023-04-28T11:22:14;100544.63;;;17.68
62611;BMP280;48683;48.084;17.272;2023-04-28T11:24:40;100530.19;;;17.71
62611;BMP280;48683;48.084;17.272;2023-04-28T11:27:05;100526.41;;;17.69
62611;BMP280;48683;48.084;17.272;2023-04-28T11:29:36;100527.56;;;17.84
62611;BMP280;48683;48.084;17.272;2023-04-28T11:32:06;100519.53;;;17.64
62611;BMP280;48683;48.084;17.272;2023-04-28T11:34:32;100511.25;;;17.51
62611;BMP280;48683;48.084;17.272;2023-04-28T11:36:58;100509.16;;;17.43
62611;BMP280;48683;48.084;17.272;2023-04-28T11:39:25;100499.22;;;17.52
62611;BMP280;48683;48.084;17.272;2023-04-28T11:41:53;100506.44;;;17.75
62611;BMP280;48683;48.084;17.272;2023-04-28T11:44:20;100487.16;;;17.86
62611;BMP280;48683;48.084;17.272;2023-04-28T11:49:31;100489.72;;;17.93
62611;BMP280;48683;48.084;17.272;2023-04-28T11:52:03;100469.66;;;18.03
62611;BMP280;48683;48.084;17.272;2023-04-28T11:54:30;100471.38;;;17.97
62611;BMP280;48683;48.084;17.272;2023-04-28T11:56:56;100462.06;;;18.11
62611;BMP280;48683;48.084;17.272;2023-04-28T11:59:24;100466.78;;;17.94
62611;BMP280;48683;48.084;17.272;2023-04-28T12:01:55;100458.50;;;17.85
62611;BMP280;48683;48.084;17.272;2023-04-28T12:04:34;100456.16;;;17.38
62611;BMP280;48683;48.084;17.272;2023-04-28T12:09:27;100443.00;;;17.69
62611;BMP280;48683;48.084;17.272;2023-04-28T12:11:58;100431.88;;;17.64
62611;BMP280;48683;48.084;17.272;2023-04-28T12:14:25;100431.72;;;17.99
62611;BMP280;48683;48.084;17.272;2023-04-28T12:16:50;100429.41;;;17.98
62611;BMP280;48683;48.084;17.272;2023-04-28T12:19:16;100426.44;;;18.09
62611;BMP280;48683;48.084;17.272;2023-04-28T12:21:57;100440.91;;;18.18
62611;BMP280;48683;48.084;17.272;2023-04-28T12:24:23;100441.06;;;18.40
62611;BMP280;48683;48.084;17.272;2023-04-28T12:26:50;100421.84;;;18.47
62611;BMP280;48683;48.084;17.272;2023-04-28T12:29:39;100408.88;;;18.38
62611;BMP280;48683;48.084;17.272;2023-04-28T12:32:07;100402.97;;;18.15
62611;BMP280;48683;48.084;17.272;2023-04-28T12:34:32;100399.50;;;18.27
62611;BMP280;48683;48.084;17.272;2023-04-28T12:37:07;100404.81;;;18.59
62611;BMP280;48683;48.084;17.272;2023-04-28T12:39:33;100355.41;;;18.35
62611;BMP280;48683;48.084;17.272;2023-04-28T12:42:00;100397.25;;;18.38
62611;BMP280;48683;48.084;17.272;2023-04-28T12:44:27;100404.34;;;18.48
62611;BMP280;48683;48.084;17.272;2023-04-28T12:46:53;100400.31;;;18.53
62611;BMP280;48683;48.084;17.272;2023-04-28T12:49:19;100400.41;;;18.49
62611;BMP280;48683;48.084;17.272;2023-04-28T12:51:44;100388.22;;;18.41
62611;BMP280;48683;48.084;17.272;2023-04-28T12:54:10;100385.50;;;18.41
62611;BMP280;48683;48.084;17.272;2023-04-28T12:56:36;100385.59;;;18.37
62611;BMP280;48683;48.084;17.272;2023-04-28T12:59:01;100378.88;;;18.17
62611;BMP280;48683;48.084;17.272;2023-04-28T13:01:27;100382.25;;;18.21
62611;BMP280;48683;48.084;17.272;2023-04-28T13:03:53;100381.13;;;18.18
62611;BMP280;48683;48.084;17.272;2023-04-28T13:06:19;100365.47;;;18.10
62611;BMP280;48683;48.084;17.272;2023-04-28T13:08:44;100355.03;;;18.08
62611;BMP280;48683;48.084;17.272;2023-04-28T13:11:10;100345.78;;;18.06
62611;BMP280;48683;48.084;17.272;2023-04-28T13:13:36;100340.69;;;18.08
62611;BMP280;48683;48.084;17.272;2023-04-28T13:16:01;100339.94;;;18.07
62611;BMP280;48683;48.084;17.272;2023-04-28T13:18:29;100340.97;;;17.84
62611;BMP280;48683;48.084;17.272;2023-04-28T13:20:54;100344.66;;;17.90
62611;BMP280;48683;48.084;17.272;2023-04-28T13:23:19;100347.50;;;17.87
62611;BMP280;48683;48.084;17.272;2023-04-28T13:25:45;100347.16;;;17.85
62611;BMP280;48683;48.084;17.272;2023-04-28T13:28:10;100356.19;;;17.94
62611;BMP280;48683;48.084;17.272;2023-04-28T13:30:37;100356.81;;;17.86
62611;BMP280;48683;48.084;17.272;2023-04-28T13:33:02;100357.78;;;17.79
62611;BMP280;48683;48.084;17.272;2023-04-28T13:35:28;100351.38;;;17.73
62611;BMP280;48683;48.084;17.272;2023-04-28T13:37:53;100363.28;;;17.63
62611;BMP280;48683;48.084;17.272;2023-04-28T13:40:25;100354.22;;;17.53
62611;BMP280;48683;48.084;17.272;2023-04-28T13:42:51;100354.53;;;17.55
62611;BMP280;48683;48.084;17.272;2023-04-28T13:45:16;100352.84;;;17.62
62611;BMP280;48683;48.084;17.272;2023-04-28T13:47:41;100361.75;;;17.62
62611;BMP280;48683;48.084;17.272;2023-04-28T13:50:07;100366.44;;;17.45
62611;BMP280;48683;48.084;17.272;2023-04-28T13:52:32;100369.47;;;17.47
62611;BMP280;48683;48.084;17.272;2023-04-28T13:54:58;100364.13;;;17.44
62611;BMP280;48683;48.084;17.272;2023-04-28T13:57:23;100360.84;;;17.36
62611;BMP280;48683;48.084;17.272;2023-04-28T13:59:49;100348.94;;;17.18
62611;BMP280;48683;48.084;17.272;2023-04-28T14:02:14;100353.50;;;17.04
62611;BMP280;48683;48.084;17.272;2023-04-28T14:04:39;100350.97;;;17.14
62611;BMP280;48683;48.084;17.272;2023-04-28T14:07:05;100346.41;;;17.11
62611;BMP280;48683;48.084;17.272;2023-04-28T14:09:30;100347.16;;;17.11
62611;BMP280;48683;48.084;17.272;2023-04-28T14:11:56;100348.34;;;17.10
62611;BMP280;48683;48.084;17.272;2023-04-28T14:14:22;100339.03;;;17.11
62611;BMP280;48683;48.084;17.272;2023-04-28T14:16:47;100336.72;;;17.09
62611;BMP280;48683;48.084;17.272;2023-04-28T14:19:13;100337.41;;;17.14
62611;BMP280;48683;48.084;17.272;2023-04-28T14:21:42;100334.50;;;17.21
62611;BMP280;48683;48.084;17.272;2023-04-28T14:24:07;100329.28;;;17.14
62611;BMP280;48683;48.084;17.272;2023-04-28T14:26:34;100336.81;;;17.22
62611;BMP280;48683;48.084;17.272;2023-04-28T14:29:00;100331.47;;;17.19
62611;BMP280;48683;48.084;17.272;2023-04-28T14:31:25;100333.84;;;17.17
62611;BMP280;48683;48.084;17.272;2023-04-28T14:33:51;100333.44;;;17.18
62611;BMP280;48683;48.084;17.272;2023-04-28T14:36:16;100336.03;;;17.22
62611;BMP280;48683;48.084;17.272;2023-04-28T14:38:41;100331.56;;;17.15
62611;BMP280;48683;48.084;17.272;2023-04-28T14:41:07;100324.72;;;17.11
62611;BMP280;48683;48.084;17.272;2023-04-28T14:43:32;100333.44;;;17.18
62611;BMP280;48683;48.084;17.272;2023-04-28T14:45:58;100323.34;;;17.19
62611;BMP280;48683;48.084;17.272;2023-04-28T14:48:23;100320.72;;;17.15
62611;BMP280;48683;48.084;17.272;2023-04-28T14:50:48;100316.56;;;17.11
62611;BMP280;48683;48.084;17.272;2023-04-28T14:53:15;100304.78;;;17.01
62611;BMP280;48683;48.084;17.272;2023-04-28T14:55:40;100307.75;;;17.06
62611;BMP280;48683;48.084;17.272;2023-04-28T14:58:06;100308.84;;;17.09
62611;BMP280;48683;48.084;17.272;2023-04-28T15:00:32;100312.00;;;17.07
62611;BMP280;48683;48.084;17.272;2023-04-28T15:02:57;100298.88;;;17.06
62611;BMP280;48683;48.084;17.272;2023-04-28T15:05:23;100291.91;;;17.05
62611;BMP280;48683;48.084;17.272;2023-04-28T15:07:48;100297.94;;;16.96
62611;BMP280;48683;48.084;17.272;2023-04-28T15:10:13;100302.72;;;16.92
62611;BMP280;48683;48.084;17.272;2023-04-28T15:12:39;100297.44;;;16.85
62611;BMP280;48683;48.084;17.272;2023-04-28T15:15:06;100304.41;;;16.86
62611;BMP280;48683;48.084;17.272;2023-04-28T15:17:31;100312.13;;;16.88
62611;BMP280;48683;48.084;17.272;2023-04-28T15:19:58;100306.00;;;16.84
62611;BMP280;48683;48.084;17.272;2023-04-28T15:22:23;100282.97;;;16.76
62611;BMP280;48683;48.084;17.272;2023-04-28T15:24:49;100280.59;;;16.78
62611;BMP280;48683;48.084;17.272;2023-04-28T15:27:15;100271.28;;;16.79
62611;BMP280;48683;48.084;17.272;2023-04-28T15:29:40;100267.38;;;16.80
62611;BMP280;48683;48.084;17.272;2023-04-28T15:32:06;100255.97;;;16.72
62611;BMP280;48683;48.084;17.272;2023-04-28T15:34:31;100252.81;;;16.74
62611;BMP280;48683;48.084;17.272;2023-04-28T15:36:57;100244.78;;;16.70
62611;BMP280;48683;48.084;17.272;2023-04-28T15:39:22;100237.19;;;16.65
62611;BMP280;48683;48.084;17.272;2023-04-28T15:41:49;100225.56;;;16.65
62611;BMP280;48683;48.084;17.272;2023-04-28T15:44:15;100202.34;;;16.64
62611;BMP280;48683;48.084;17.272;2023-04-28T15:46:40;100194.56;;;16.66
62611;BMP280;48683;48.084;17.272;2023-04-28T15:49:07;100212.34;;;16.67
62611;BMP280;48683;48.084;17.272;2023-04-28T15:51:32;100223.78;;;16.58
62611;BMP280;48683;48.084;17.272;2023-04-28T15:53:58;100241.56;;;16.59
62611;BMP280;48683;48.084;17.272;2023-04-28T15:56:23;100252.88;;;16.54
62611;BMP280;48683;48.084;17.272;2023-04-28T15:58:49;100269.03;;;16.61
62611;BMP280;48683;48.084;17.272;2023-04-28T16:01:15;100258.28;;;16.54
62611;BMP280;48683;48.084;17.272;2023-04-28T16:03:40;100267.47;;;16.60
62611;BMP280;48683;48.084;17.272;2023-04-28T16:06:06;100254.78;;;16.57
62611;BMP280;48683;48.084;17.272;2023-04-28T16:08:32;100257.97;;;16.52
62611;BMP280;48683;48.084;17.272;2023-04-28T16:10:58;100252.81;;;16.57
62611;BMP280;48683;48.084;17.272;2023-04-28T16:13:23;100247.47;;;16.54
62611;BMP280;48683;48.084;17.272;2023-04-28T16:15:48;100225.38;;;16.55
62611;BMP280;48683;48.084;17.272;2023-04-28T16:18:15;100228.94;;;16.69
62611;BMP280;48683;48.084;17.272;2023-04-28T16:20:41;100215.16;;;16.63
62611;BMP280;48683;48.084;17.272;2023-04-28T16:23:07;100211.16;;;16.68
62611;BMP280;48683;48.084;17.272;2023-04-28T16:25:35;100208.78;;;16.70
62611;BMP280;48683;48.084;17.272;2023-04-28T16:28:01;100208.63;;;16.77
62611;BMP280;48683;48.084;17.272;2023-04-28T16:30:26;100199.56;;;16.67
62611;BMP280;48683;48.084;17.272;2023-04-28T16:32:51;100205.66;;;16.71
62611;BMP280;48683;48.084;17.272;2023-04-28T16:35:17;100206.16;;;16.66
62611;BMP280;48683;48.084;17.272;2023-04-28T16:37:43;100202.00;;;16.61
62611;BMP280;48683;48.084;17.272;2023-04-28T16:40:09;100211.06;;;16.55
62611;BMP280;48683;48.084;17.272;2023-04-28T16:42:34;100205.25;;;16.56
62611;BMP280;48683;48.084;17.272;2023-04-28T16:45:00;100202.69;;;16.49
62611;BMP280;48683;48.084;17.272;2023-04-28T16:47:25;100201.94;;;16.49
62611;BMP280;48683;48.084;17.272;2023-04-28T16:49:51;100205.41;;;16.49
62611;BMP280;48683;48.084;17.272;2023-04-28T16:52:16;100200.50;;;16.44
62611;BMP280;48683;48.084;17.272;2023-04-28T16:54:42;100207.53;;;16.42
62611;BMP280;48683;48.084;17.272;2023-04-28T16:57:07;100203.03;;;16.35
62611;BMP280;48683;48.084;17.272;2023-04-28T16:59:33;100205.59;;;16.26
62611;BMP280;48683;48.084;17.272;2023-04-28T17:02:00;100199.53;;;16.19
62611;BMP280;48683;48.084;17.272;2023-04-28T17:04:29;100189.81;;;16.05
62611;BMP280;48683;48.084;17.272;2023-04-28T17:06:55;100186.91;;;15.96
62611;BMP280;48683;48.084;17.272;2023-04-28T17:09:21;100188.19;;;15.91
62611;BMP280;48683;48.084;17.272;2023-04-28T17:11:47;100188.25;;;15.88
62611;BMP280;48683;48.084;17.272;2023-04-28T17:14:13;100196.06;;;15.86
62611;BMP280;48683;48.084;17.272;2023-04-28T17:16:39;100199.59;;;15.83
62611;BMP280;48683;48.084;17.272;2023-04-28T17:19:05;100209.81;;;15.75
62611;BMP280;48683;48.084;17.272;2023-04-28T17:21:30;100200.66;;;15.69
62611;BMP280;48683;48.084;17.272;2023-04-28T17:23:57;100214.63;;;15.68
62611;BMP280;48683;48.084;17.272;2023-04-28T17:26:23;100202.06;;;15.57
62611;BMP280;48683;48.084;17.272;2023-04-28T17:28:48;100212.91;;;15.57
62611;BMP280;48683;48.084;17.272;2023-04-28T17:31:14;100205.28;;;15.52
62611;BMP280;48683;48.084;17.272;2023-04-28T17:33:40;100201.50;;;15.46
62611;BMP280;48683;48.084;17.272;2023-04-28T17:36:06;100208.25;;;15.38
62611;BMP280;48683;48.084;17.272;2023-04-28T17:38:31;100198.34;;;15.32
62611;BMP280;48683;48.084;17.272;2023-04-28T17:40:57;100206.38;;;15.35
62611;BMP280;48683;48.084;17.272;2023-04-28T17:43:22;100207.13;;;15.36
62611;BMP280;48683;48.084;17.272;2023-04-28T17:45:49;100212.72;;;15.45
62611;BMP280;48683;48.084;17.272;2023-04-28T17:48:18;100210.94;;;15.38
62611;BMP280;48683;48.084;17.272;2023-04-28T17:50:44;100215.66;;;15.34
62611;BMP280;48683;48.084;17.272;2023-04-28T17:53:09;100220.22;;;15.37
62611;BMP280;48683;48.084;17.272;2023-04-28T17:55:34;100230.63;;;15.39
62611;BMP280;48683;48.084;17.272;2023-04-28T17:58:00;100210.31;;;15.31
62611;BMP280;48683;48.084;17.272;2023-04-28T18:00:25;100214.00;;;15.20
62611;BMP280;48683;48.084;17.272;2023-04-28T18:02:50;100213.84;;;15.08
62611;BMP280;48683;48.084;17.272;2023-04-28T18:05:16;100221.19;;;15.07
62611;BMP280;48683;48.084;17.272;2023-04-28T18:07:42;100225.97;;;15.00
62611;BMP280;48683;48.084;17.272;2023-04-28T18:10:07;100223.81;;;14.91
62611;BMP280;48683;48.084;17.272;2023-04-28T18:12:33;100218.41;;;14.91
62611;BMP280;48683;48.084;17.272;2023-04-28T18:14:58;100222.00;;;14.85
62611;BMP280;48683;48.084;17.272;2023-04-28T18:17:24;100221.22;;;14.84
62611;BMP280;48683;48.084;17.272;2023-04-28T18:19:50;100222.75;;;14.85
62611;BMP280;48683;48.084;17.272;2023-04-28T18:22:19;100216.84;;;14.70
62611;BMP280;48683;48.084;17.272;2023-04-28T18:24:44;100226.53;;;14.68
62611;BMP280;48683;48.084;17.272;2023-04-28T18:27:10;100218.94;;;14.59
62611;BMP280;48683;48.084;17.272;2023-04-28T18:29:35;100222.66;;;14.46
62611;BMP280;48683;48.084;17.272;2023-04-28T18:32:01;100227.34;;;14.42